Time;durP1;ratioP1;P1;durP2;ratioP2;P2;SDS_P1;SDS_P2;PMS_P1;PMS_P2;Temp;Humidity;BMP_temperature;BMP_pressure;BME280_temperature;BME280_humidity;BME280_pressure;Samples;Min_cycle;Max_cycle;Signal;HPM_P1;HPM_P2
2022/05/20 00:00:44;;;;;;;12.85;9.63;;;13.30;99.90;;;;;;5029694;28;20057;-68
2022/05/20 00:03:10;;;;;;;11.15;9.90;;;13.20;99.90;;;;;;5044738;28;20438;-68
2022/05/20 00:05:36;;;;;;;13.77;10.43;;;13.30;99.90;;;;;;5046592;28;20037;-68
2022/05/20 00:08:03;;;;;;;15.68;10.32;;;13.30;99.90;;;;;;5042834;28;20064;-68
2022/05/20 00:10:29;;;;;;;14.88;11.13;;;13.20;99.90;;;;;;5045167;28;20039;-68
2022/05/20 00:12:55;;;;;;;14.48;11.43;;;13.20;99.90;;;;;;5044517;28;20048;-68
2022/05/20 00:15:22;;;;;;;14.18;11.27;;;13.20;99.90;;;;;;5013793;28;20057;-68
2022/05/20 00:17:48;;;;;;;16.77;12.57;;;13.20;99.90;;;;;;5040586;28;20080;-68
2022/05/20 00:20:17;;;;;;;15.07;12.13;;;13.20;99.90;;;;;;5029301;28;20348;-68
2022/05/20 00:22:43;;;;;;;15.60;12.13;;;13.20;99.90;;;;;;5044507;28;20041;-68
2022/05/20 00:27:55;;;;;;;15.20;10.85;;;13.20;99.90;;;;;;5044205;28;20041;-67
2022/05/20 00:30:21;;;;;;;14.95;10.55;;;13.20;99.90;;;;;;5033028;28;20049;-67
2022/05/20 00:32:47;;;;;;;15.70;12.00;;;13.30;99.90;;;;;;5020488;28;20072;-68
2022/05/20 00:35:13;;;;;;;18.15;10.85;;;13.30;99.90;;;;;;5020622;28;20032;-68
2022/05/20 00:37:40;;;;;;;13.25;10.10;;;13.30;99.90;;;;;;5026066;28;20049;-68
2022/05/20 00:40:09;;;;;;;12.13;10.88;;;13.30;99.90;;;;;;5030244;28;20533;-68
2022/05/20 00:42:35;;;;;;;15.20;10.23;;;13.30;99.90;;;;;;5024065;28;20061;-68
2022/05/20 00:45:03;;;;;;;15.55;10.80;;;13.30;99.90;;;;;;5037858;28;20033;-68
2022/05/20 00:47:29;;;;;;;16.08;11.27;;;13.30;99.90;;;;;;5005984;28;20057;-68
2022/05/20 00:49:56;;;;;;;14.65;10.20;;;13.40;99.90;;;;;;5042022;28;20125;-68
2022/05/20 00:52:25;;;;;;;14.63;11.13;;;13.30;99.90;;;;;;5045289;28;20045;-68
2022/05/20 00:54:55;;;;;;;16.70;11.85;;;13.30;99.90;;;;;;5041309;28;20033;-68
2022/05/20 00:57:29;;;;;;;15.13;10.63;;;13.30;99.90;;;;;;5030454;28;20045;-68
2022/05/20 00:59:57;;;;;;;;;;;13.30;99.90;;;;;;5026811;28;20135;-68
2022/05/20 01:02:25;;;;;;;14.50;11.00;;;13.20;99.90;;;;;;5043510;28;19917;-68
2022/05/20 01:04:56;;;;;;;17.52;12.45;;;13.30;99.90;;;;;;5036071;28;20136;-68
2022/05/20 01:07:23;;;;;;;12.55;10.68;;;13.20;99.90;;;;;;5026908;28;20051;-68
2022/05/20 01:09:49;;;;;;;13.40;10.63;;;13.30;99.90;;;;;;5045699;28;20041;-68
2022/05/20 01:12:15;;;;;;;16.58;10.60;;;13.20;99.90;;;;;;5028022;28;20049;-68
2022/05/20 01:14:41;;;;;;;15.00;11.30;;;13.20;99.90;;;;;;5036816;28;20045;-68
2022/05/20 01:17:08;;;;;;;14.88;11.55;;;13.20;99.90;;;;;;5026825;28;20041;-68
2022/05/20 01:19:42;;;;;;;17.05;11.35;;;13.20;99.90;;;;;;5022753;28;20045;-68
2022/05/20 01:22:11;;;;;;;16.05;11.27;;;13.20;99.90;;;;;;5040081;28;20350;-68
2022/05/20 01:24:37;;;;;;;15.02;10.85;;;13.20;99.90;;;;;;5037143;28;20494;-67
2022/05/20 01:27:03;;;;;;;17.05;10.70;;;13.20;99.90;;;;;;5038923;28;20048;-67
2022/05/20 01:29:30;;;;;;;15.88;11.05;;;13.20;99.90;;;;;;5038063;28;20033;-67
2022/05/20 01:31:55;;;;;;;15.68;10.05;;;13.10;99.90;;;;;;5038971;28;20484;-67
2022/05/20 01:34:22;;;;;;;13.88;10.82;;;13.10;99.90;;;;;;5040032;28;20049;-67
2022/05/20 01:36:48;;;;;;;12.75;11.38;;;13.10;99.90;;;;;;5023024;28;20040;-68
2022/05/20 01:39:14;;;;;;;14.00;10.77;;;13.10;99.90;;;;;;5040033;28;20037;-68
2022/05/20 01:42:01;;;;;;;12.15;10.40;;;13.10;99.90;;;;;;5030437;28;20098;-68
2022/05/20 01:44:48;;;;;;;16.27;11.70;;;13.20;99.90;;;;;;5029608;28;20049;-68
2022/05/20 01:47:22;;;;;;;14.32;11.40;;;13.20;99.90;;;;;;5023435;28;20044;-68
2022/05/20 01:50:06;;;;;;;16.75;11.43;;;13.10;99.90;;;;;;5025455;28;20049;-68
2022/05/20 01:52:56;;;;;;;13.85;10.57;;;13.10;99.90;;;;;;5047212;28;20049;-68
2022/05/20 01:55:27;;;;;;;20.02;11.48;;;13.10;99.90;;;;;;5008841;28;20056;-68
2022/05/20 01:58:11;;;;;;;14.10;11.05;;;13.10;99.90;;;;;;5029935;28;20037;-68
2022/05/20 02:00:39;;;;;;;14.05;11.57;;;13.10;99.90;;;;;;5043093;28;20042;-68
2022/05/20 02:03:27;;;;;;;14.25;10.95;;;13.10;99.90;;;;;;5043043;28;20143;-68
2022/05/20 02:06:01;;;;;;;15.40;10.65;;;13.10;99.90;;;;;;5048041;28;20056;-68
2022/05/20 02:08:33;;;;;;;15.02;11.90;;;13.10;99.90;;;;;;5027828;28;20564;-68
2022/05/20 02:11:17;;;;;;;13.60;11.30;;;13.10;99.90;;;;;;5027018;28;20044;-68
2022/05/20 02:13:49;;;;;;;14.40;11.70;;;13.10;99.90;;;;;;5042014;28;20064;-68
2022/05/20 02:16:22;;;;;;;14.15;11.43;;;13.20;99.90;;;;;;5039040;28;20037;-68
2022/05/20 02:19:12;;;;;;;14.57;11.93;;;13.10;99.90;;;;;;5024739;28;20067;-68
2022/05/20 02:21:42;;;;;;;16.75;12.45;;;13.20;99.90;;;;;;5036157;28;20060;-68
2022/05/20 02:24:12;;;;;;;16.23;12.65;;;13.20;99.90;;;;;;5024280;28;20090;-68
2022/05/20 02:26:43;;;;;;;15.57;13.50;;;13.20;99.90;;;;;;5029872;28;20042;-68
2022/05/20 02:29:13;;;;;;;17.23;13.95;;;13.20;99.90;;;;;;5043709;28;20038;-68
2022/05/20 02:32:08;;;;;;;16.23;12.85;;;13.20;99.90;;;;;;5045825;28;20044;-68
2022/05/20 02:34:34;;;;;;;19.52;13.73;;;13.20;99.90;;;;;;5042637;28;20155;-68
2022/05/20 02:37:22;;;;;;;16.27;14.05;;;13.10;99.90;;;;;;5045401;28;20111;-68
2022/05/20 02:39:49;;;;;;;16.25;13.50;;;13.20;99.90;;;;;;5035513;28;20525;-68
2022/05/20 02:42:14;;;;;;;17.45;13.65;;;13.10;99.90;;;;;;5028124;28;20067;-68
2022/05/20 02:44:40;;;;;;;17.65;15.10;;;13.10;99.90;;;;;;5034732;28;20132;-68
2022/05/20 02:47:06;;;;;;;18.65;15.07;;;13.10;99.90;;;;;;5040796;28;20038;-68
2022/05/20 02:49:32;;;;;;;20.25;15.55;;;13.10;99.90;;;;;;5045016;28;20044;-68
2022/05/20 02:51:58;;;;;;;17.33;15.52;;;13.10;99.90;;;;;;5024314;28;20041;-68
2022/05/20 02:54:23;;;;;;;17.45;15.60;;;13.20;99.90;;;;;;5042783;28;20037;-68
2022/05/20 02:56:50;;;;;;;18.27;16.35;;;13.20;99.90;;;;;;5021564;28;20033;-68
2022/05/20 03:04:46;;;;;;;18.73;15.85;;;13.10;99.90;;;;;;5039191;28;20155;-68
2022/05/20 03:07:13;;;;;;;17.17;15.60;;;13.20;99.90;;;;;;5031446;28;20119;-68
2022/05/20 03:09:39;;;;;;;19.42;15.85;;;13.20;99.90;;;;;;5024983;28;20045;-68
2022/05/20 03:12:06;;;;;;;18.05;16.35;;;13.20;99.90;;;;;;5022259;28;20048;-68
2022/05/20 03:14:32;;;;;;;19.27;17.02;;;13.20;99.90;;;;;;5032563;28;20045;-68
2022/05/20 03:17:01;;;;;;;18.30;16.42;;;13.10;99.90;;;;;;5042067;28;20064;-68
2022/05/20 03:19:31;;;;;;;17.95;15.27;;;13.20;99.90;;;;;;5038310;28;20049;-67
2022/05/20 03:22:02;;;;;;;21.40;15.35;;;13.10;99.90;;;;;;5024154;28;20045;-66
2022/05/20 03:24:29;;;;;;;20.38;17.40;;;13.10;99.90;;;;;;5025637;28;20076;-66
2022/05/20 03:26:55;;;;;;;18.27;15.80;;;13.20;99.90;;;;;;5042816;28;20037;-67
2022/05/20 03:29:21;;;;;;;21.40;16.50;;;13.10;99.90;;;;;;5040284;28;20046;-67
2022/05/20 03:31:47;;;;;;;17.92;16.02;;;13.20;99.90;;;;;;5040262;28;20037;-67
2022/05/20 03:34:13;;;;;;;17.80;15.40;;;13.20;99.90;;;;;;5026881;28;20124;-68
2022/05/20 03:36:43;;;;;;;18.20;16.40;;;13.10;99.90;;;;;;5041603;28;20472;-68
2022/05/20 03:39:11;;;;;;;23.05;16.40;;;13.10;99.90;;;;;;5043344;28;20454;-68
2022/05/20 03:41:38;;;;;;;17.83;15.95;;;13.10;99.90;;;;;;5041891;28;20045;-68
2022/05/20 03:44:05;;;;;;;17.65;15.75;;;13.00;99.90;;;;;;5001595;28;20475;-67
2022/05/20 03:46:32;;;;;;;15.40;13.90;;;13.00;99.90;;;;;;5010112;28;20049;-67
2022/05/20 03:49:01;;;;;;;13.88;11.43;;;13.00;99.90;;;;;;5028102;28;20103;-67
2022/05/20 03:51:27;;;;;;;11.55;10.30;;;13.00;99.90;;;;;;5027991;28;20040;-67
2022/05/20 03:53:52;;;;;;;15.43;11.82;;;13.00;99.90;;;;;;5008293;28;20409;-67
2022/05/20 03:56:19;;;;;;;15.38;11.32;;;13.00;99.90;;;;;;5023361;28;20065;-67
2022/05/20 03:58:44;;;;;;;14.52;11.50;;;13.00;99.90;;;;;;5029909;28;20037;-67
2022/05/20 04:03:56;;;;;;;13.45;11.82;;;12.80;99.90;;;;;;5007329;28;20049;-69
2022/05/20 04:06:22;;;;;;;13.70;11.20;;;12.80;99.90;;;;;;5026723;28;20026;-67
2022/05/20 04:08:48;;;;;;;15.40;12.15;;;12.80;99.90;;;;;;5025994;28;20052;-67
2022/05/20 04:11:14;;;;;;;14.13;11.93;;;12.80;99.90;;;;;;5020815;28;20069;-67
2022/05/20 04:13:41;;;;;;;13.82;12.20;;;12.70;99.90;;;;;;5029489;28;20038;-67
2022/05/20 04:16:09;;;;;;;15.75;11.93;;;12.80;99.90;;;;;;5020171;28;20512;-67
2022/05/20 04:18:35;;;;;;;15.10;13.13;;;12.70;99.90;;;;;;4999596;28;20051;-67
2022/05/20 04:21:01;;;;;;;13.80;12.05;;;12.70;99.90;;;;;;5021709;28;20501;-66
2022/05/20 04:23:27;;;;;;;15.70;13.10;;;12.70;99.90;;;;;;5009781;28;20042;-67
2022/05/20 04:25:53;;;;;;;15.43;13.30;;;12.70;99.90;;;;;;5011859;28;20041;-66
2022/05/20 04:28:18;;;;;;;15.90;13.57;;;12.80;99.90;;;;;;5030024;28;20043;-66
2022/05/20 04:30:44;;;;;;;19.27;15.10;;;12.80;99.90;;;;;;5026705;28;20391;-66
2022/05/20 04:33:10;;;;;;;16.95;14.60;;;12.80;99.90;;;;;;5026032;28;20108;-67
2022/05/20 04:35:36;;;;;;;16.52;13.70;;;12.70;99.90;;;;;;5031488;28;20052;-67
2022/05/20 04:38:02;;;;;;;18.25;14.05;;;12.70;99.90;;;;;;5025342;28;20041;-67
2022/05/20 04:40:28;;;;;;;15.60;14.00;;;12.60;99.90;;;;;;5007614;28;20187;-67
2022/05/20 04:48:24;;;;;;;14.95;13.50;;;12.50;99.90;;;;;;5027371;28;20163;-67
2022/05/20 04:50:50;;;;;;;17.38;15.55;;;12.50;99.90;;;;;;5024560;28;20042;-66
2022/05/20 04:54:49;;;;;;;17.17;15.32;;;12.60;99.90;;;;;;5007746;28;20042;-66
2022/05/20 04:56:01;;;;;;;17.20;15.50;;;12.70;99.90;;;;;;5027238;28;20473;-66
2022/05/20 04:58:26;;;;;;;17.45;14.93;;;12.80;99.90;;;;;;5008434;28;20056;-66
2022/05/20 05:00:55;;;;;;;17.08;15.27;;;13.00;99.90;;;;;;5006455;28;20100;-66
2022/05/20 05:03:20;;;;;;;18.08;14.82;;;13.40;99.90;;;;;;5023746;28;20409;-66
2022/05/20 05:05:46;;;;;;;16.02;14.30;;;13.70;99.90;;;;;;5026097;28;20091;-66
2022/05/20 05:08:16;;;;;;;19.27;14.15;;;13.90;99.90;;;;;;5020870;28;20041;-66
2022/05/20 05:10:43;;;;;;;17.70;13.15;;;14.00;99.90;;;;;;5002360;28;20096;-66
2022/05/20 05:13:09;;;;;;;16.65;12.38;;;14.40;99.90;;;;;;5016158;28;20406;-66
2022/05/20 05:15:38;;;;;;;15.18;11.80;;;14.70;99.90;;;;;;5024250;28;20045;-66
2022/05/20 05:18:12;;;;;;;13.50;11.48;;;14.90;99.90;;;;;;5019920;28;20052;-67
2022/05/20 05:20:46;;;;;;;13.10;11.55;;;14.80;99.90;;;;;;5011923;28;20049;-67
2022/05/20 05:23:12;;;;;;;16.92;9.93;;;14.70;99.90;;;;;;5018983;28;20036;-67
2022/05/20 05:25:38;;;;;;;12.55;9.13;;;14.60;99.90;;;;;;5006261;28;20102;-66
2022/05/20 05:28:05;;;;;;;10.52;7.28;;;14.70;99.90;;;;;;5023128;28;20038;-66
2022/05/20 05:30:31;;;;;;;12.93;6.38;;;14.60;99.90;;;;;;5024740;28;20389;-67
2022/05/20 05:32:57;;;;;;;10.05;6.65;;;14.60;99.90;;;;;;5025095;28;20113;-67
2022/05/20 05:35:27;;;;;;;9.30;5.45;;;14.60;99.90;;;;;;5025017;28;20479;-67
2022/05/20 05:37:53;;;;;;;8.98;6.35;;;14.70;99.90;;;;;;5022178;28;20786;-66
2022/05/20 05:40:24;;;;;;;9.88;6.30;;;14.60;99.90;;;;;;5021078;28;20107;-66
2022/05/20 05:42:51;;;;;;;12.10;7.28;;;14.70;99.90;;;;;;5002418;28;20694;-66
2022/05/20 05:45:20;;;;;;;11.27;6.80;;;14.60;99.90;;;;;;5022023;28;20489;-66
2022/05/20 05:47:51;;;;;;;12.55;7.97;;;14.70;99.90;;;;;;4995201;28;20034;-66
2022/05/20 05:50:17;;;;;;;11.50;8.15;;;14.70;99.90;;;;;;5016353;28;20115;-67
2022/05/20 05:52:43;;;;;;;13.52;8.43;;;14.80;99.90;;;;;;5015498;28;20042;-67
2022/05/20 05:55:09;;;;;;;11.45;7.57;;;14.80;99.90;;;;;;5016408;28;20037;-67
2022/05/20 05:57:35;;;;;;;12.50;7.85;;;14.90;99.90;;;;;;5026268;28;20049;-66
2022/05/20 06:00:01;;;;;;;9.73;6.80;;;14.90;99.90;;;;;;5026924;28;20049;-66
2022/05/20 06:02:27;;;;;;;10.40;7.82;;;14.90;99.90;;;;;;5020118;28;20045;-67
2022/05/20 06:04:55;;;;;;;13.35;7.30;;;15.20;99.90;;;;;;4997441;28;20558;-67
2022/05/20 06:07:21;;;;;;;12.85;7.65;;;15.40;99.90;;;;;;4991929;28;20139;-67
2022/05/20 06:09:46;;;;;;;12.90;7.70;;;15.50;99.90;;;;;;5018724;28;20479;-67
2022/05/20 06:12:14;;;;;;;13.18;7.25;;;15.60;99.90;;;;;;5019741;28;20044;-66
2022/05/20 06:14:40;;;;;;;10.85;7.20;;;15.60;99.90;;;;;;5020196;28;20040;-66
2022/05/20 06:17:11;;;;;;;12.48;6.85;;;15.60;99.90;;;;;;5019231;28;20144;-66
2022/05/20 06:19:37;;;;;;;9.27;6.70;;;15.40;99.90;;;;;;5021023;28;20040;-68
2022/05/20 06:22:03;;;;;;;9.77;6.13;;;15.20;99.90;;;;;;5003578;28;20046;-66
2022/05/20 06:24:29;;;;;;;11.40;7.00;;;15.20;99.90;;;;;;5024352;28;20038;-66
2022/05/20 06:26:55;;;;;;;10.73;7.25;;;15.00;99.90;;;;;;5023664;28;20101;-66
2022/05/20 06:29:20;;;;;;;11.73;7.78;;;15.10;99.90;;;;;;5005046;28;20041;-66
2022/05/20 06:31:46;;;;;;;9.35;6.82;;;15.20;99.90;;;;;;5023792;28;20421;-66
2022/05/20 06:34:12;;;;;;;9.35;7.75;;;15.40;99.90;;;;;;5026264;28;20405;-66
2022/05/20 06:42:07;;;;;;;11.27;8.80;;;15.60;99.90;;;;;;5024320;28;20056;-66
2022/05/20 06:44:33;;;;;;;11.00;9.20;;;15.40;99.90;;;;;;5046980;28;20061;-66
2022/05/20 06:46:59;;;;;;;12.27;9.30;;;15.30;99.90;;;;;;5037326;28;20616;-66
2022/05/20 06:49:24;;;;;;;11.18;8.95;;;15.20;99.90;;;;;;5035765;28;20037;-66
2022/05/20 06:51:54;;;;;;;14.25;9.65;;;15.20;99.90;;;;;;5036781;28;20045;-66
2022/05/20 06:54:20;;;;;;;11.82;8.52;;;15.30;99.90;;;;;;5037165;28;20041;-67
2022/05/20 06:56:46;;;;;;;12.15;9.40;;;15.50;99.90;;;;;;5038492;28;20041;-67
2022/05/20 06:59:12;;;;;;;12.05;8.98;;;15.70;99.90;;;;;;5046787;28;20049;-67
2022/05/20 07:01:38;;;;;;;11.90;8.75;;;16.10;99.90;;;;;;5042164;28;20112;-67
2022/05/20 07:04:05;;;;;;;11.43;8.40;;;16.30;99.90;;;;;;5044213;28;20053;-67
2022/05/20 07:06:32;;;;;;;10.98;7.93;;;16.50;99.90;;;;;;5042926;28;20037;-67
2022/05/20 07:08:58;;;;;;;13.82;8.27;;;16.60;99.90;;;;;;5045221;28;20037;-67
2022/05/20 07:11:25;;;;;;;9.15;7.70;;;16.50;99.90;;;;;;5046386;28;20045;-67
2022/05/20 07:13:55;;;;;;;9.32;7.68;;;16.40;99.90;;;;;;5046718;28;20091;-67
2022/05/20 07:16:25;;;;;;;13.25;8.30;;;16.40;99.90;;;;;;5043346;28;20077;-67
2022/05/20 07:18:52;;;;;;;9.65;7.72;;;16.50;99.90;;;;;;5044390;28;20048;-67
2022/05/20 07:21:18;;;;;;;10.90;7.43;;;16.60;99.90;;;;;;5045968;28;20044;-67
2022/05/20 07:23:44;;;;;;;10.07;7.07;;;16.80;99.90;;;;;;5047752;28;20033;-67
2022/05/20 07:26:10;;;;;;;11.73;7.45;;;16.80;99.90;;;;;;5027830;28;20077;-68
2022/05/20 07:28:36;;;;;;;10.15;7.82;;;16.90;99.90;;;;;;5046195;28;20033;-66
2022/05/20 07:31:02;;;;;;;12.38;8.75;;;17.10;99.90;;;;;;5040426;28;20092;-66
2022/05/20 07:33:28;;;;;;;13.35;9.45;;;17.10;99.90;;;;;;5045641;28;20068;-66
2022/05/20 07:35:55;;;;;;;9.60;7.45;;;17.10;99.90;;;;;;5026720;28;20524;-66
2022/05/20 07:38:22;;;;;;;9.32;7.05;;;17.30;99.90;;;;;;5039095;28;20048;-66
2022/05/20 07:40:48;;;;;;;9.63;7.13;;;17.60;99.90;;;;;;5036572;28;20044;-67
2022/05/20 07:43:13;;;;;;;10.60;7.60;;;17.60;99.90;;;;;;5045338;28;20041;-67
2022/05/20 07:45:40;;;;;;;10.45;7.10;;;17.70;99.90;;;;;;5039809;28;20064;-67
2022/05/20 07:48:06;;;;;;;8.80;6.70;;;17.90;99.90;;;;;;5041758;28;20053;-67
2022/05/20 07:50:38;;;;;;;7.68;6.60;;;18.10;99.90;;;;;;5021327;28;20052;-67
2022/05/20 07:53:19;;;;;;;9.73;7.05;;;18.30;99.90;;;;;;5037093;28;20042;-68
2022/05/20 07:55:59;;;;;;;9.70;7.43;;;18.30;99.90;;;;;;5038828;28;20038;-67
2022/05/20 07:58:29;;;;;;;10.05;7.88;;;18.30;99.90;;;;;;5042140;28;20050;-68
2022/05/20 08:00:58;;;;;;;8.90;7.80;;;18.30;99.90;;;;;;5040876;28;20041;-68
2022/05/20 08:06:13;;;;;;;9.65;7.93;;;18.50;99.90;;;;;;5041175;28;20133;-67
2022/05/20 08:37:30;;;;;;;8.75;6.90;;;18.40;99.90;;;;;;5005413;27;1250421;-66
2022/05/20 08:39:56;;;;;;;9.45;6.97;;;19.30;97.50;;;;;;5035489;28;20060;-66
2022/05/20 08:42:25;;;;;;;8.57;6.50;;;19.30;98.90;;;;;;5029869;28;20049;-66
2022/05/20 08:44:51;;;;;;;9.35;6.53;;;19.70;99.30;;;;;;5033194;28;20369;-66
2022/05/20 08:47:24;;;;;;;8.85;6.35;;;20.10;98.90;;;;;;5029728;28;20033;-66
2022/05/20 08:49:54;;;;;;;8.33;5.83;;;20.60;98.10;;;;;;5036369;28;20080;-67
2022/05/20 08:52:20;;;;;;;5.93;5.28;;;20.90;96.40;;;;;;5032393;28;20412;-67
2022/05/20 08:54:46;;;;;;;6.85;6.00;;;21.10;96.00;;;;;;5036546;28;20124;-67
2022/05/20 08:57:25;;;;;;;6.80;5.68;;;21.40;96.80;;;;;;5030408;28;20128;-67
2022/05/20 08:59:51;;;;;;;5.70;4.95;;;21.70;93.10;;;;;;5032836;28;20355;-67
2022/05/20 09:02:17;;;;;;;7.70;5.20;;;22.00;94.00;;;;;;5032205;28;20037;-67
2022/05/20 09:04:43;;;;;;;6.22;5.00;;;22.20;93.90;;;;;;5033035;28;20101;-67
2022/05/20 09:07:14;;;;;;;8.82;5.50;;;22.20;90.30;;;;;;5033738;28;20544;-67
2022/05/20 09:09:46;;;;;;;7.57;5.53;;;22.10;88.00;;;;;;5034582;28;20573;-67
2022/05/20 09:12:36;;;;;;;8.25;6.32;;;22.10;89.80;;;;;;5033119;28;20440;-67
2022/05/20 09:18:04;;;;;;;7.68;5.45;;;22.40;90.40;;;;;;5030621;28;20451;-67
2022/05/20 09:20:30;;;;;;;7.57;6.15;;;22.60;86.40;;;;;;5035852;28;20042;-68
2022/05/20 09:22:59;;;;;;;11.25;5.75;;;22.60;84.40;;;;;;5033245;28;20033;-68
2022/05/20 09:25:28;;;;;;;6.00;5.35;;;22.50;80.40;;;;;;5033976;28;20053;-68
2022/05/20 09:28:17;;;;;;;6.55;5.80;;;22.30;81.90;;;;;;5024898;28;20694;-68
2022/05/20 09:30:47;;;;;;;9.05;5.82;;;22.30;76.20;;;;;;5015633;28;20076;-68
2022/05/20 09:33:20;;;;;;;7.40;6.68;;;22.00;79.80;;;;;;5009492;28;20071;-68
2022/05/20 09:35:54;;;;;;;9.18;5.68;;;21.90;79.40;;;;;;5015749;28;20058;-68
2022/05/20 09:38:31;;;;;;;6.25;5.53;;;21.90;79.60;;;;;;5001543;28;20045;-68
2022/05/20 09:40:57;;;;;;;9.50;6.05;;;22.00;81.80;;;;;;5002931;28;20486;-68
2022/05/20 09:43:27;;;;;;;6.20;5.60;;;22.10;81.60;;;;;;4999531;28;20045;-68
2022/05/20 09:45:54;;;;;;;6.57;5.82;;;22.10;81.00;;;;;;4999064;28;20038;-68
2022/05/20 09:48:31;;;;;;;7.85;6.28;;;22.00;80.50;;;;;;5001584;28;20488;-68
2022/05/20 09:51:35;;;;;;;6.13;5.43;;;21.90;80.80;;;;;;5000223;28;20416;-68
2022/05/20 09:54:13;;;;;;;6.03;5.05;;;21.60;77.90;;;;;;4999212;28;20054;-68
2022/05/20 09:56:45;;;;;;;7.50;5.47;;;21.30;77.90;;;;;;5000569;28;20532;-68
2022/05/20 09:59:24;;;;;;;6.25;4.88;;;21.20;76.50;;;;;;4998787;28;20496;-68
2022/05/20 10:02:19;;;;;;;8.65;5.43;;;21.00;77.00;;;;;;5003458;28;20551;-68
2022/05/20 10:05:15;;;;;;;4.82;4.30;;;20.90;76.60;;;;;;5000308;28;20108;-68
2022/05/20 10:07:53;;;;;;;5.45;4.95;;;20.90;73.40;;;;;;5002726;28;20528;-68
2022/05/20 10:10:46;;;;;;;5.75;4.75;;;20.80;74.70;;;;;;4999655;28;20041;-68
2022/05/20 10:13:44;;;;;;;6.05;5.05;;;20.80;73.10;;;;;;5002877;28;20077;-67
2022/05/20 10:16:38;;;;;;;7.43;5.03;;;20.90;72.30;;;;;;5007887;28;20046;-67
2022/05/20 10:19:29;;;;;;;6.50;5.90;;;20.80;73.90;;;;;;5000013;28;20092;-67
2022/05/20 10:22:23;;;;;;;7.57;6.32;;;20.80;74.40;;;;;;5001311;28;20070;-67
2022/05/20 10:25:05;;;;;;;8.23;6.60;;;20.90;75.60;;;;;;4999868;28;20100;-67
2022/05/20 10:27:55;;;;;;;6.15;5.30;;;21.00;74.70;;;;;;5002232;28;20056;-67
2022/05/20 10:33:30;;;;;;;6.88;6.20;;;21.20;73.80;;;;;;5001387;28;20136;-67
2022/05/20 10:36:20;;;;;;;6.90;6.20;;;21.20;73.70;;;;;;4997241;28;20045;-67
2022/05/20 10:39:21;;;;;;;10.15;6.10;;;21.20;73.50;;;;;;5000056;28;20057;-67
2022/05/20 10:42:12;;;;;;;7.78;6.35;;;21.30;76.80;;;;;;4995098;28;20042;-67
2022/05/20 10:50:27;;;;;;;7.13;6.43;;;21.60;74.00;;;;;;5000317;28;20535;-67
2022/05/20 10:53:10;;;;;;;7.13;6.40;;;21.90;74.30;;;;;;4979843;28;20050;-68
2022/05/20 10:55:56;;;;;;;7.13;6.03;;;22.20;72.70;;;;;;4999664;28;20065;-68
2022/05/20 10:59:05;;;;;;;8.57;6.75;;;22.10;72.00;;;;;;5000644;28;20046;-68
2022/05/20 11:01:46;;;;;;;6.80;5.90;;;22.10;69.70;;;;;;5026251;28;20041;-68
2022/05/20 11:04:43;;;;;;;5.90;5.30;;;22.20;68.70;;;;;;5004821;28;20279;-68
2022/05/20 11:07:27;;;;;;;5.18;4.28;;;22.40;71.20;;;;;;5003956;28;20049;-70
2022/05/20 11:10:22;;;;;;;6.38;4.65;;;22.60;63.20;;;;;;5002177;28;20037;-69
2022/05/20 11:12:51;;;;;;;3.40;2.97;;;22.50;62.70;;;;;;4951947;28;20380;-69
2022/05/20 11:15:20;;;;;;;5.10;3.80;;;22.40;59.70;;;;;;4989979;28;20405;-69
2022/05/20 11:18:23;;;;;;;4.88;3.78;;;22.50;61.00;;;;;;5003759;28;20509;-68
2022/05/20 11:21:16;;;;;;;4.65;3.22;;;22.80;61.70;;;;;;4993533;28;20555;-69
2022/05/20 11:24:26;;;;;;;3.43;2.90;;;23.20;55.20;;;;;;5005979;28;20537;-69
2022/05/20 11:26:58;;;;;;;4.38;2.65;;;23.20;58.60;;;;;;4997026;28;20506;-69
2022/05/20 11:29:32;;;;;;;4.47;2.90;;;23.40;57.00;;;;;;5000783;28;20057;-69
2022/05/20 11:32:05;;;;;;;5.32;3.10;;;23.60;54.10;;;;;;5002631;28;20204;-69
2022/05/20 11:34:48;;;;;;;5.63;3.50;;;23.70;53.40;;;;;;5003207;28;20118;-69
2022/05/20 11:37:28;;;;;;;4.72;3.75;;;23.90;55.90;;;;;;5000873;28;20054;-69
2022/05/20 11:40:25;;;;;;;4.97;3.92;;;24.30;56.90;;;;;;5007272;28;20447;-69
2022/05/20 11:43:20;;;;;;;4.10;3.70;;;24.80;53.70;;;;;;4986413;28;20358;-69
2022/05/20 11:46:18;;;;;;;3.50;2.92;;;24.70;52.80;;;;;;5004083;28;20046;-68
2022/05/20 11:48:58;;;;;;;5.97;4.10;;;24.30;49.60;;;;;;4967743;28;20045;-68
2022/05/20 11:51:49;;;;;;;5.38;4.88;;;24.00;53.90;;;;;;4998076;28;20042;-68
2022/05/20 11:54:44;;;;;;;5.88;5.38;;;23.60;54.80;;;;;;4999704;28;20171;-68
2022/05/20 11:57:26;;;;;;;5.13;4.63;;;22.80;56.80;;;;;;5008552;28;20229;-68
2022/05/20 11:59:57;;;;;;;5.25;4.75;;;22.40;57.80;;;;;;5000122;28;20034;-68
2022/05/20 12:02:26;;;;;;;6.97;5.40;;;22.20;57.20;;;;;;4993058;28;20046;-68
2022/05/20 12:04:52;;;;;;;3.92;3.35;;;21.90;58.60;;;;;;4998727;28;20038;-68
2022/05/20 12:07:23;;;;;;;4.00;3.60;;;21.80;56.30;;;;;;5003218;28;20534;-68
2022/05/20 12:09:51;;;;;;;6.32;3.97;;;21.50;56.60;;;;;;5008624;28;20083;-68
2022/05/20 12:12:27;;;;;;;4.53;3.30;;;21.40;57.00;;;;;;5005703;28;20041;-68
2022/05/20 12:15:11;;;;;;;7.63;3.83;;;21.30;57.10;;;;;;4999201;28;20098;-68
2022/05/20 12:17:38;;;;;;;4.50;3.53;;;21.20;57.10;;;;;;5004273;28;20034;-68
2022/05/20 12:26:00;;;;;;;3.92;3.53;;;21.10;54.90;;;;;;5005787;28;20461;-68
2022/05/20 12:28:26;;;;;;;4.80;3.50;;;21.10;55.60;;;;;;5004565;28;20389;-67
2022/05/20 12:31:06;;;;;;;4.22;3.50;;;21.00;57.50;;;;;;5002851;28;20033;-67
2022/05/20 12:33:52;;;;;;;4.95;3.65;;;21.10;57.50;;;;;;5004569;28;20249;-67
2022/05/20 12:36:21;;;;;;;5.47;3.85;;;21.10;58.80;;;;;;5002520;28;20513;-67
2022/05/20 12:38:47;;;;;;;5.15;3.58;;;21.00;60.40;;;;;;5004817;28;20053;-67
2022/05/20 12:41:38;;;;;;;3.97;3.28;;;21.10;61.00;;;;;;5001524;28;20046;-67
2022/05/20 12:44:15;;;;;;;4.07;3.60;;;21.10;61.60;;;;;;5012440;28;20048;-67
2022/05/20 12:47:22;;;;;;;4.28;3.25;;;21.00;58.20;;;;;;4997131;28;20051;-67
2022/05/20 12:49:48;;;;;;;6.50;3.42;;;21.00;60.10;;;;;;5001382;28;20411;-67
2022/05/20 12:52:26;;;;;;;5.63;3.85;;;21.00;60.40;;;;;;5001933;28;20070;-67
2022/05/20 12:55:10;;;;;;;5.10;4.60;;;21.00;61.70;;;;;;5002319;28;20126;-68
2022/05/20 12:57:36;;;;;;;6.60;4.70;;;21.10;62.50;;;;;;5002807;28;20050;-67
2022/05/20 13:00:12;;;;;;;4.82;4.40;;;20.90;63.20;;;;;;5004791;28;20544;-67
2022/05/20 13:02:45;;;;;;;6.13;4.70;;;20.90;64.60;;;;;;5003077;28;20471;-67
2022/05/20 13:05:21;;;;;;;5.70;4.82;;;20.90;64.60;;;;;;5000736;28;20039;-67
2022/05/20 13:07:48;;;;;;;5.63;4.70;;;20.80;66.30;;;;;;5001793;28;20485;-67
2022/05/20 13:10:34;;;;;;;5.90;5.30;;;20.60;66.30;;;;;;5010119;28;20072;-67
2022/05/20 13:13:07;;;;;;;6.00;5.45;;;20.60;65.70;;;;;;5003659;28;20114;-67
2022/05/20 13:15:43;;;;;;;8.70;5.40;;;20.40;66.50;;;;;;4995317;28;20485;-67
2022/05/20 13:18:33;;;;;;;8.25;7.18;;;20.30;67.20;;;;;;5005032;28;20068;-68
2022/05/20 13:21:06;;;;;;;9.60;8.70;;;20.10;67.10;;;;;;5011421;28;20554;-68
2022/05/20 13:23:39;;;;;;;11.05;9.63;;;19.90;69.00;;;;;;5004625;28;20137;-67
2022/05/20 13:26:11;;;;;;;10.10;9.10;;;19.80;70.10;;;;;;5005462;28;20042;-67
2022/05/20 13:28:38;;;;;;;11.18;10.20;;;19.70;71.60;;;;;;5005148;28;20048;-67
2022/05/20 13:31:06;;;;;;;12.50;11.45;;;19.50;72.80;;;;;;5006769;28;20431;-68
2022/05/20 13:33:33;;;;;;;14.25;13.00;;;19.40;74.30;;;;;;4998197;28;20048;-67
2022/05/20 13:36:02;;;;;;;15.82;14.35;;;19.30;76.40;;;;;;5005890;28;20566;-67
2022/05/20 13:38:31;;;;;;;16.15;14.77;;;19.10;79.90;;;;;;4999973;28;20473;-67
2022/05/20 13:40:57;;;;;;;17.70;16.20;;;19.00;84.20;;;;;;5004936;28;20465;-67
2022/05/20 13:43:33;;;;;;;17.35;15.75;;;18.80;88.90;;;;;;5004117;28;20073;-67
2022/05/20 13:51:51;;;;;;;19.63;17.75;;;18.40;95.90;;;;;;5000094;28;20057;-67
2022/05/20 13:54:30;;;;;;;19.50;17.60;;;18.20;99.10;;;;;;5007311;28;20480;-67
2022/05/20 13:56:57;;;;;;;18.63;16.73;;;18.00;99.90;;;;;;5002242;28;20056;-66
2022/05/20 13:59:27;;;;;;;21.20;19.00;;;17.90;99.90;;;;;;5005944;28;20295;-67
2022/05/20 14:02:01;;;;;;;21.38;19.20;;;17.80;99.90;;;;;;5006909;28;20171;-70
2022/05/20 14:04:35;;;;;;;20.70;18.55;;;17.70;99.90;;;;;;5019445;28;20045;-70
2022/05/20 14:07:05;;;;;;;18.42;16.65;;;17.60;99.90;;;;;;5005059;28;20039;-71
2022/05/20 14:09:32;;;;;;;19.75;17.75;;;17.60;99.90;;;;;;5003298;28;20614;-72
2022/05/20 14:11:58;;;;;;;20.70;18.67;;;17.50;99.90;;;;;;5001254;28;20046;-72
2022/05/20 14:14:31;;;;;;;21.33;19.17;;;17.40;99.90;;;;;;5002615;28;20046;-72
2022/05/20 14:17:02;;;;;;;20.83;18.92;;;17.30;99.90;;;;;;5003008;28;20058;-72